createdAt,value
2018-08-14T00:01:19.760Z,41.86
2018-08-14T00:03:45.694Z,41.25
2018-08-14T00:06:11.647Z,42.44
2018-08-14T00:08:37.605Z,42.20
2018-08-14T00:11:03.557Z,41.99
2018-08-14T00:13:29.509Z,43.20
2018-08-14T00:15:55.460Z,43.25
2018-08-14T00:18:21.441Z,43.63
2018-08-14T00:20:47.415Z,44.63
2018-08-14T00:23:13.382Z,44.02
2018-08-14T00:25:39.335Z,44.85
2018-08-14T00:28:05.278Z,43.82
2018-08-14T00:30:31.228Z,44.05
2018-08-14T00:32:57.180Z,43.95
2018-08-14T00:35:23.134Z,42.85
2018-08-14T00:37:49.073Z,45.61
2018-08-14T00:40:15.029Z,44.26
2018-08-14T00:42:41.038Z,43.76
2018-08-14T00:45:07.015Z,43.65
2018-08-14T00:47:32.945Z,43.47
2018-08-14T00:49:58.888Z,43.42
2018-08-14T00:52:24.837Z,43.20
2018-08-14T00:54:50.769Z,44.00
2018-08-14T00:57:16.714Z,43.54
2018-08-14T00:59:42.671Z,42.39
2018-08-14T01:02:08.820Z,43.58
2018-08-14T01:04:34.765Z,42.61
2018-08-14T01:07:00.727Z,42.51
2018-08-14T01:09:26.657Z,42.54
2018-08-14T01:11:52.607Z,42.65
2018-08-14T01:14:18.564Z,43.55
2018-08-14T01:16:44.518Z,44.00
2018-08-14T01:19:10.478Z,43.00
2018-08-14T01:21:36.421Z,43.16
2018-08-14T01:24:02.359Z,43.20
2018-08-14T01:26:28.330Z,43.24
2018-08-14T01:28:54.266Z,42.54
2018-08-14T01:31:20.456Z,43.03
2018-08-14T01:33:46.389Z,42.93
2018-08-14T01:36:12.340Z,42.42
2018-08-14T01:38:38.275Z,41.67
2018-08-14T01:41:04.215Z,41.93
2018-08-14T01:43:30.187Z,42.96
2018-08-14T01:45:56.132Z,41.91
2018-08-14T01:48:22.087Z,42.57
2018-08-14T01:50:48.032Z,41.59
2018-08-14T01:53:13.971Z,41.82
2018-08-14T01:55:39.912Z,42.06
2018-08-14T01:58:05.887Z,41.81
2018-08-14T02:00:31.813Z,41.40
2018-08-14T02:02:57.750Z,41.73
2018-08-14T02:05:23.674Z,41.27
2018-08-14T02:07:49.624Z,41.24
2018-08-14T02:10:15.591Z,42.13
2018-08-14T02:12:41.515Z,42.00
2018-08-14T02:15:07.470Z,42.24
2018-08-14T02:17:33.432Z,41.94
2018-08-14T02:19:59.367Z,41.41
2018-08-14T02:22:25.321Z,42.30
2018-08-14T02:24:51.267Z,42.41
2018-08-14T02:27:17.214Z,41.46
2018-08-14T02:29:43.166Z,41.08
2018-08-14T02:32:09.124Z,41.67
2018-08-14T02:34:35.052Z,41.00
2018-08-14T02:37:00.971Z,41.29
2018-08-14T02:39:26.911Z,40.75
2018-08-14T02:41:52.869Z,41.90
2018-08-14T02:44:18.823Z,41.77
2018-08-14T02:46:44.799Z,41.43
2018-08-14T02:49:10.794Z,41.50
2018-08-14T02:51:36.741Z,41.95
2018-08-14T02:54:02.691Z,41.79
2018-08-14T02:56:28.635Z,41.79
2018-08-14T02:58:54.632Z,42.08
2018-08-14T03:01:20.584Z,41.08
2018-08-14T03:03:46.555Z,41.92
2018-08-14T03:06:12.508Z,41.49
2018-08-14T03:08:38.485Z,41.20
2018-08-14T03:11:04.427Z,41.29
2018-08-14T03:13:30.385Z,41.77
2018-08-14T03:15:56.334Z,41.33
2018-08-14T03:18:22.338Z,41.66
2018-08-14T03:20:48.386Z,42.25
2018-08-14T03:23:14.326Z,41.23
2018-08-14T03:25:40.252Z,41.20
2018-08-14T03:28:06.164Z,42.06
2018-08-14T03:30:32.113Z,42.00
2018-08-14T03:32:58.056Z,41.98
2018-08-14T03:35:23.987Z,41.03
2018-08-14T03:37:49.937Z,42.12
2018-08-14T03:40:15.861Z,42.17
2018-08-14T03:42:41.818Z,42.17
2018-08-14T03:45:07.774Z,42.57
2018-08-14T03:47:33.743Z,42.82
2018-08-14T03:49:59.717Z,42.91
2018-08-14T03:52:25.705Z,42.73
2018-08-14T03:54:51.692Z,41.50
2018-08-14T03:57:19.736Z,42.41
2018-08-14T03:59:45.707Z,42.54
2018-08-14T04:02:11.628Z,42.08
2018-08-14T04:04:37.591Z,43.08
2018-08-14T04:07:03.546Z,43.46
2018-08-14T04:09:29.507Z,43.06
2018-08-14T04:11:55.457Z,43.97
2018-08-14T04:14:21.419Z,42.68
2018-08-14T04:16:47.344Z,42.66
2018-08-14T04:19:13.294Z,43.46
2018-08-14T04:21:39.274Z,42.44
2018-08-14T04:24:05.234Z,43.60
2018-08-14T04:26:31.186Z,43.28
2018-08-14T04:28:57.144Z,42.81
2018-08-14T04:31:23.107Z,42.60
2018-08-14T04:33:49.070Z,41.91
2018-08-14T04:36:15.032Z,42.18
2018-08-14T04:38:40.979Z,42.80
2018-08-14T04:41:06.955Z,43.00
2018-08-14T04:43:32.919Z,41.94
2018-08-14T04:45:58.946Z,41.93
2018-08-14T04:48:24.851Z,42.81
2018-08-14T04:50:50.792Z,41.76
2018-08-14T04:53:16.738Z,40.85
2018-08-14T04:55:42.691Z,42.23
2018-08-14T04:58:08.626Z,42.06
2018-08-14T05:00:34.566Z,41.13
2018-08-14T05:03:00.510Z,41.78
2018-08-14T05:05:26.916Z,41.55
2018-08-14T05:07:52.863Z,41.37
2018-08-14T05:10:18.827Z,41.32
2018-08-14T05:12:44.816Z,41.82
2018-08-14T05:15:10.769Z,42.45
2018-08-14T05:17:36.793Z,42.31
2018-08-14T05:20:02.726Z,41.88
2018-08-14T05:22:28.701Z,42.03
2018-08-14T05:24:54.641Z,41.02
2018-08-14T05:27:20.603Z,41.14
2018-08-14T05:29:46.553Z,40.82
2018-08-14T05:32:12.506Z,40.38
2018-08-14T05:34:38.465Z,40.83
2018-08-14T05:37:04.389Z,40.88
2018-08-14T05:39:30.327Z,41.09
2018-08-14T05:41:56.317Z,40.41
2018-08-14T05:44:22.266Z,40.95
2018-08-14T05:46:48.217Z,40.23
2018-08-14T05:49:14.151Z,40.24
2018-08-14T05:51:40.123Z,40.01
2018-08-14T05:54:06.695Z,41.15
2018-08-14T05:56:32.643Z,40.70
2018-08-14T05:58:58.578Z,39.38
2018-08-14T06:01:24.560Z,39.78
2018-08-14T06:03:50.510Z,39.80
2018-08-14T06:06:16.494Z,40.16
2018-08-14T06:08:42.433Z,39.50
2018-08-14T06:11:08.485Z,39.70
2018-08-14T06:13:34.432Z,39.89
2018-08-14T06:16:00.458Z,40.44
2018-08-14T06:18:26.397Z,39.44
2018-08-14T06:20:52.342Z,40.05
2018-08-14T06:23:18.293Z,39.48
2018-08-14T06:25:44.334Z,39.97
2018-08-14T06:28:10.285Z,40.07
2018-08-14T06:30:36.417Z,40.07
2018-08-14T06:33:02.412Z,38.45
2018-08-14T06:35:29.396Z,40.44
2018-08-14T06:37:55.334Z,40.71
2018-08-14T06:40:21.296Z,38.91
2018-08-14T06:42:47.236Z,40.48
2018-08-14T06:45:13.203Z,41.73
2018-08-14T06:47:39.173Z,41.77
2018-08-14T06:50:05.105Z,41.25
2018-08-14T06:52:31.036Z,40.87
2018-08-14T06:54:56.972Z,42.01
2018-08-14T06:57:22.903Z,39.16
2018-08-14T06:59:48.837Z,39.96
2018-08-14T07:02:15.800Z,38.75
2018-08-14T07:04:41.746Z,40.89
2018-08-14T07:07:07.752Z,37.47
2018-08-14T07:09:33.702Z,40.31
2018-08-14T07:11:59.697Z,38.85
2018-08-14T07:14:25.652Z,38.97
2018-08-14T07:16:51.602Z,37.70
2018-08-14T07:19:17.517Z,38.44
2018-08-14T07:21:43.503Z,41.88
2018-08-14T07:24:09.451Z,39.04
2018-08-14T07:26:35.403Z,38.89
2018-08-14T07:29:01.351Z,39.65
2018-08-14T07:31:27.329Z,39.09
2018-08-14T07:33:53.278Z,38.88
2018-08-14T07:36:19.238Z,39.18
2018-08-14T07:38:45.167Z,38.84
2018-08-14T07:41:11.103Z,37.96
2018-08-14T07:43:37.073Z,40.67
2018-08-14T07:46:03.009Z,38.75
2018-08-14T07:48:28.986Z,42.58
2018-08-14T07:50:54.940Z,39.96
2018-08-14T07:53:20.882Z,38.73
2018-08-14T07:55:46.827Z,37.06
2018-08-14T07:58:13.803Z,39.24
2018-08-14T08:00:39.761Z,37.90
2018-08-14T08:03:05.692Z,38.89
2018-08-14T08:05:31.640Z,40.75
2018-08-14T08:07:57.652Z,38.57
2018-08-14T08:10:23.631Z,40.85
2018-08-14T08:12:49.545Z,38.00
2018-08-14T08:15:15.477Z,40.17
2018-08-14T08:17:41.400Z,41.69
2018-08-14T08:20:07.389Z,39.38
2018-08-14T08:22:33.336Z,38.83
2018-08-14T08:24:59.288Z,39.96
2018-08-14T08:27:25.225Z,40.41
2018-08-14T08:29:51.170Z,39.01
2018-08-14T08:32:17.111Z,39.44
2018-08-14T08:34:43.075Z,36.56
2018-08-14T08:37:09.060Z,36.63
2018-08-14T08:39:35.067Z,35.57
2018-08-14T08:42:03.043Z,39.99
2018-08-14T08:44:28.967Z,39.18
2018-08-14T08:46:54.947Z,38.33
2018-08-14T08:49:20.942Z,40.23
2018-08-14T08:51:46.888Z,38.95
2018-08-14T08:54:12.842Z,39.43
2018-08-14T08:56:38.812Z,42.24
2018-08-14T08:59:04.753Z,39.43
2018-08-14T09:01:30.715Z,35.21
2018-08-14T09:03:56.756Z,38.66
2018-08-14T09:06:22.688Z,39.11
2018-08-14T09:08:48.679Z,39.64
2018-08-14T09:11:14.611Z,37.67
2018-08-14T09:13:40.629Z,38.78
2018-08-14T09:16:06.576Z,39.52
2018-08-14T09:18:32.593Z,40.07
2018-08-14T09:20:58.533Z,37.66
2018-08-14T09:23:24.476Z,38.37
2018-08-14T09:25:50.440Z,37.90
2018-08-14T09:28:16.394Z,35.94
2018-08-14T09:30:42.321Z,40.00
2018-08-14T09:33:08.271Z,39.40
2018-08-14T09:35:34.215Z,36.34
2018-08-14T09:38:00.171Z,35.22
2018-08-14T09:40:26.129Z,38.47
2018-08-14T09:42:52.119Z,36.58
2018-08-14T09:45:18.116Z,38.34
2018-08-14T09:47:44.079Z,37.30
2018-08-14T09:50:10.020Z,36.77
2018-08-14T09:52:35.974Z,37.17
2018-08-14T09:55:01.910Z,37.01
2018-08-14T09:57:27.863Z,36.77
2018-08-14T09:59:53.811Z,37.03
2018-08-14T10:02:19.763Z,37.28
2018-08-14T10:04:45.809Z,39.33
2018-08-14T10:07:11.708Z,39.83
2018-08-14T10:09:37.648Z,38.07
2018-08-14T10:12:03.598Z,37.89
2018-08-14T10:14:29.553Z,38.44
2018-08-14T10:16:55.504Z,34.35
2018-08-14T10:19:21.448Z,37.46
2018-08-14T10:21:47.398Z,36.09
2018-08-14T10:24:13.366Z,37.21
2018-08-14T10:26:39.351Z,37.13
2018-08-14T10:29:05.323Z,34.52
2018-08-14T10:31:31.296Z,34.72
2018-08-14T10:33:57.269Z,37.47
2018-08-14T10:36:23.233Z,37.85
2018-08-14T10:38:49.219Z,37.36
2018-08-14T10:41:15.197Z,32.79
2018-08-14T10:43:41.165Z,39.26
2018-08-14T10:46:07.204Z,37.51
2018-08-14T10:48:33.172Z,37.65
2018-08-14T10:50:59.126Z,38.17
2018-08-14T10:53:25.052Z,36.63
2018-08-14T10:55:51.047Z,38.49
2018-08-14T10:58:17.017Z,38.31
2018-08-14T11:00:43.029Z,39.48
2018-08-14T11:03:08.989Z,35.99
2018-08-14T11:05:34.972Z,33.21
2018-08-14T11:08:00.914Z,38.46
2018-08-14T11:10:26.839Z,39.18
2018-08-14T11:12:52.783Z,34.90
2018-08-14T11:15:18.735Z,38.48
2018-08-14T11:17:44.694Z,38.85
2018-08-14T11:20:10.673Z,35.67
2018-08-14T11:22:36.634Z,39.11
2018-08-14T11:25:02.576Z,38.63
2018-08-14T11:27:28.553Z,37.44
2018-08-14T11:29:54.505Z,37.28
2018-08-14T11:32:20.449Z,37.06
2018-08-14T11:34:46.411Z,39.00
2018-08-14T11:37:12.374Z,32.76
2018-08-14T11:39:38.346Z,39.37
2018-08-14T11:42:04.280Z,36.97
2018-08-14T11:44:30.305Z,37.89
2018-08-14T11:46:56.235Z,37.25
2018-08-14T11:49:22.179Z,31.86
2018-08-14T11:51:48.155Z,38.64
2018-08-14T11:54:14.140Z,36.81
2018-08-14T11:56:40.113Z,36.17
2018-08-14T11:59:06.075Z,33.20
2018-08-14T12:01:32.021Z,38.12
2018-08-14T12:03:57.964Z,36.67
2018-08-14T12:06:23.967Z,36.82
2018-08-14T12:08:49.896Z,36.25
2018-08-14T12:11:15.890Z,37.43
2018-08-14T12:13:41.859Z,36.47
2018-08-14T12:16:07.823Z,35.65
2018-08-14T12:18:33.793Z,32.03
2018-08-14T12:20:59.853Z,35.56
2018-08-14T12:23:25.814Z,36.58
2018-08-14T12:25:51.799Z,34.48
2018-08-14T12:28:17.785Z,34.27
2018-08-14T12:30:43.727Z,34.38
2018-08-14T12:33:09.735Z,33.25
2018-08-14T12:35:35.686Z,35.23
2018-08-14T12:38:01.625Z,37.42
2018-08-14T12:40:27.599Z,31.53
2018-08-14T12:42:53.531Z,31.18
2018-08-14T12:45:19.497Z,35.31
2018-08-14T12:47:45.459Z,33.97
2018-08-14T12:50:11.449Z,32.27
2018-08-14T12:52:37.412Z,35.78
2018-08-14T12:55:03.380Z,35.44
2018-08-14T12:57:29.342Z,33.92
2018-08-14T12:59:55.319Z,32.85
2018-08-14T13:02:21.259Z,33.46
2018-08-14T13:04:47.356Z,35.51
2018-08-14T13:07:13.310Z,36.45
2018-08-14T13:09:39.252Z,36.77
2018-08-14T13:12:05.197Z,38.43
2018-08-14T13:14:31.158Z,36.76
2018-08-14T13:16:57.121Z,37.82
2018-08-14T13:19:23.076Z,36.93
2018-08-14T13:21:49.029Z,33.75
2018-08-14T13:24:14.967Z,32.87
2018-08-14T13:26:40.958Z,36.67
2018-08-14T13:29:06.912Z,34.00
2018-08-14T13:31:32.876Z,34.08
2018-08-14T13:33:58.867Z,33.06
2018-08-14T13:36:24.829Z,35.81
2018-08-14T13:38:50.901Z,33.97
2018-08-14T13:41:16.868Z,34.40
2018-08-14T13:43:42.828Z,38.12
2018-08-14T13:46:08.790Z,34.81
2018-08-14T13:48:34.764Z,36.47
2018-08-14T13:51:00.703Z,36.46
2018-08-14T13:53:26.685Z,34.92
2018-08-14T13:55:52.646Z,34.05
2018-08-14T13:58:18.622Z,35.51
2018-08-14T14:00:44.592Z,36.35
2018-08-14T14:03:10.577Z,36.60
2018-08-14T14:05:36.535Z,36.69
2018-08-14T14:08:02.500Z,34.78
2018-08-14T14:10:28.450Z,39.56
2018-08-14T14:12:54.385Z,34.94
2018-08-14T14:15:20.333Z,37.98
2018-08-14T14:17:46.306Z,34.58
2018-08-14T14:20:12.248Z,33.05
2018-08-14T14:22:38.208Z,34.65
2018-08-14T14:25:04.177Z,33.73
2018-08-14T14:27:30.209Z,32.26
2018-08-14T14:29:56.147Z,35.51
2018-08-14T14:32:22.115Z,36.91
2018-08-14T14:34:48.071Z,32.89
2018-08-14T14:37:14.067Z,35.73
2018-08-14T14:39:40.038Z,37.39
2018-08-14T14:42:06.033Z,37.42
2018-08-14T14:44:31.985Z,35.10
2018-08-14T14:46:57.978Z,37.57
2018-08-14T14:49:23.960Z,33.31
2018-08-14T14:51:49.896Z,33.41
2018-08-14T14:54:15.831Z,32.32
2018-08-14T14:56:41.809Z,34.02
2018-08-14T14:59:07.746Z,34.94
2018-08-14T15:01:33.677Z,33.97
2018-08-14T15:03:59.602Z,37.07
2018-08-14T15:06:25.566Z,35.30
2018-08-14T15:08:51.529Z,32.07
2018-08-14T15:11:17.489Z,31.90
2018-08-14T15:13:43.472Z,31.86
2018-08-14T15:16:09.421Z,32.79
2018-08-14T15:18:35.394Z,33.44
2018-08-14T15:21:01.337Z,32.62
2018-08-14T15:23:27.286Z,33.61
2018-08-14T15:25:53.247Z,33.78
2018-08-14T15:28:19.247Z,32.59
2018-08-14T15:30:45.221Z,32.89
2018-08-14T15:33:11.165Z,35.67
2018-08-14T15:35:37.097Z,35.19
2018-08-14T15:38:03.020Z,37.01
2018-08-14T15:40:28.973Z,32.72
2018-08-14T15:42:54.937Z,36.04
2018-08-14T15:45:20.910Z,35.23
2018-08-14T15:47:46.836Z,33.69
2018-08-14T15:50:13.288Z,33.59
2018-08-14T15:52:39.252Z,34.55
2018-08-14T15:55:05.280Z,33.77
2018-08-14T15:57:31.265Z,32.49
2018-08-14T15:59:57.249Z,34.27
2018-08-14T16:02:23.238Z,33.52
2018-08-14T16:04:49.272Z,35.43
2018-08-14T16:07:15.240Z,32.58
2018-08-14T16:09:41.191Z,33.01
2018-08-14T16:12:07.137Z,37.43
2018-08-14T16:14:33.067Z,37.80
2018-08-14T16:16:59.022Z,32.80
2018-08-14T16:19:25.008Z,35.61
2018-08-14T16:21:51.040Z,35.95
2018-08-14T16:24:17.001Z,35.49
2018-08-14T16:26:42.993Z,36.28
2018-08-14T16:29:08.935Z,32.41
2018-08-14T16:31:34.924Z,36.73
2018-08-14T16:34:00.906Z,35.97
2018-08-14T16:36:26.894Z,36.00
2018-08-14T16:38:52.866Z,34.71
2018-08-14T16:41:18.805Z,35.96
2018-08-14T16:43:44.759Z,34.92
2018-08-14T16:46:10.905Z,33.08
2018-08-14T16:48:36.873Z,35.77
2018-08-14T16:51:02.840Z,36.31
2018-08-14T16:53:28.789Z,36.23
2018-08-14T16:55:54.735Z,33.98
2018-08-14T16:58:20.691Z,36.36
2018-08-14T17:00:46.653Z,34.65
2018-08-14T17:03:12.618Z,34.88
2018-08-14T17:05:38.568Z,35.24
2018-08-14T17:08:04.632Z,35.09
2018-08-14T17:10:30.489Z,33.65
2018-08-14T17:12:56.433Z,35.27
2018-08-14T17:15:22.388Z,36.77
2018-08-14T17:17:48.344Z,36.49
2018-08-14T17:20:14.290Z,38.35
2018-08-14T17:22:40.262Z,37.50
2018-08-14T17:25:06.222Z,37.29
2018-08-14T17:27:32.226Z,38.11
2018-08-14T17:29:58.183Z,37.05
2018-08-14T17:32:24.191Z,37.99
2018-08-14T17:34:50.158Z,36.56
2018-08-14T17:37:16.144Z,36.46
2018-08-14T17:39:42.178Z,37.09
2018-08-14T17:42:08.167Z,37.56
2018-08-14T17:44:34.115Z,37.62
2018-08-14T17:47:00.133Z,37.96
2018-08-14T17:49:26.070Z,37.45
2018-08-14T17:51:52.041Z,37.76
2018-08-14T17:54:17.978Z,36.87
2018-08-14T17:56:43.977Z,37.76
2018-08-14T17:59:09.930Z,36.32
2018-08-14T18:01:35.898Z,36.94
2018-08-14T18:04:01.994Z,37.75
2018-08-14T18:06:27.967Z,37.70
2018-08-14T18:08:53.904Z,38.25
2018-08-14T18:11:19.892Z,37.90
2018-08-14T18:13:45.872Z,37.79
2018-08-14T18:16:11.846Z,37.47
2018-08-14T18:18:37.833Z,36.79
2018-08-14T18:21:03.775Z,36.96
2018-08-14T18:23:29.746Z,36.50
2018-08-14T18:25:55.712Z,37.18
2018-08-14T18:28:21.682Z,37.29
2018-08-14T18:30:47.638Z,38.19
2018-08-14T18:33:13.703Z,37.84
2018-08-14T18:35:39.667Z,37.24
2018-08-14T18:38:05.625Z,37.13
2018-08-14T18:40:31.596Z,37.19
2018-08-14T18:42:57.566Z,37.70
2018-08-14T18:45:23.651Z,38.36
2018-08-14T18:47:49.640Z,38.39
2018-08-14T18:50:15.598Z,37.57
2018-08-14T18:52:41.550Z,37.98
2018-08-14T18:55:07.515Z,37.02
2018-08-14T18:57:33.497Z,38.16
2018-08-14T18:59:59.465Z,38.93
2018-08-14T19:02:25.431Z,37.97
2018-08-14T19:04:52.415Z,37.37
2018-08-14T19:07:18.529Z,38.34
2018-08-14T19:09:44.470Z,38.57
2018-08-14T19:12:10.438Z,37.93
2018-08-14T19:14:36.759Z,37.79
2018-08-14T19:17:02.815Z,38.26
2018-08-14T19:19:28.785Z,38.93
2018-08-14T19:21:54.753Z,38.23
2018-08-14T19:24:20.734Z,38.83
2018-08-14T19:26:46.683Z,38.26
2018-08-14T19:29:12.687Z,38.95
2018-08-14T19:31:38.663Z,38.49
2018-08-14T19:34:04.628Z,38.12
2018-08-14T19:36:30.590Z,38.91
2018-08-14T19:38:56.550Z,38.55
2018-08-14T19:41:22.511Z,38.36
2018-08-14T19:43:48.473Z,39.17
2018-08-14T19:46:14.534Z,38.30
2018-08-14T19:48:40.647Z,38.81
2018-08-14T19:51:06.630Z,38.03
2018-08-14T19:53:32.610Z,38.08
2018-08-14T19:55:58.545Z,38.29
2018-08-14T19:58:24.597Z,38.67
2018-08-14T20:00:50.675Z,38.57
2018-08-14T20:03:16.719Z,38.40
2018-08-14T20:05:42.622Z,37.87
2018-08-14T20:08:08.616Z,37.51
2018-08-14T20:10:34.599Z,38.24
2018-08-14T20:13:00.566Z,38.55
2018-08-14T20:15:26.603Z,37.62
2018-08-14T20:17:52.575Z,38.09
2018-08-14T20:20:18.536Z,38.50
2018-08-14T20:22:44.528Z,38.42
2018-08-14T20:25:10.490Z,38.53
2018-08-14T20:27:36.449Z,39.36
2018-08-14T20:30:02.440Z,39.05
2018-08-14T20:32:28.382Z,39.67
2018-08-14T20:34:54.338Z,39.49
2018-08-14T20:37:20.360Z,39.77
2018-08-14T20:39:46.348Z,39.11
2018-08-14T20:42:12.300Z,40.15
2018-08-14T20:44:38.243Z,39.64
2018-08-14T20:47:04.252Z,40.03
2018-08-14T20:49:30.184Z,40.81
2018-08-14T20:51:56.120Z,41.08
2018-08-14T20:54:22.158Z,40.68
2018-08-14T20:56:48.139Z,40.88
2018-08-14T20:59:14.123Z,41.06
2018-08-14T21:01:40.081Z,42.17
2018-08-14T21:04:06.061Z,41.64
2018-08-14T21:06:31.993Z,40.72
2018-08-14T21:08:57.954Z,41.30
2018-08-14T21:11:23.891Z,41.43
2018-08-14T21:13:49.834Z,41.45
2018-08-14T21:16:15.822Z,41.22
2018-08-14T21:18:41.784Z,39.74
2018-08-14T21:21:07.739Z,41.08
2018-08-14T21:23:33.706Z,40.68
2018-08-14T21:25:59.728Z,40.49
2018-08-14T21:28:25.668Z,40.49
2018-08-14T21:30:51.608Z,39.88
2018-08-14T21:33:17.559Z,39.83
2018-08-14T21:35:43.501Z,40.66
2018-08-14T21:38:09.450Z,39.46
2018-08-14T21:40:35.412Z,39.85
2018-08-14T21:43:01.391Z,39.27
2018-08-14T21:45:27.333Z,39.78
2018-08-14T21:47:53.294Z,38.98
2018-08-14T21:50:19.263Z,40.01
2018-08-14T21:52:45.301Z,39.64
2018-08-14T21:55:11.266Z,38.29
2018-08-14T21:57:37.216Z,39.38
2018-08-14T22:00:03.179Z,39.08
2018-08-14T22:02:29.122Z,39.12
2018-08-14T22:04:55.137Z,38.67
2018-08-14T22:07:21.043Z,39.11
2018-08-14T22:09:47.019Z,39.51
2018-08-14T22:12:12.958Z,40.23
2018-08-14T22:14:38.927Z,40.12
2018-08-14T22:17:04.879Z,40.10
2018-08-14T22:19:30.875Z,38.77
2018-08-14T22:21:56.813Z,38.45
2018-08-14T22:24:22.772Z,39.92
2018-08-14T22:26:48.730Z,38.59
2018-08-14T22:29:14.689Z,39.67
2018-08-14T22:31:40.666Z,40.43
2018-08-14T22:34:06.620Z,40.23
2018-08-14T22:36:32.570Z,39.74
2018-08-14T22:38:58.518Z,40.51
2018-08-14T22:41:24.459Z,39.39
2018-08-14T22:43:50.432Z,39.46
2018-08-14T22:46:16.386Z,40.21
2018-08-14T22:48:42.342Z,40.21
2018-08-14T22:51:08.276Z,39.52
2018-08-14T22:53:34.214Z,39.57
2018-08-14T22:56:00.183Z,39.84
2018-08-14T22:58:26.114Z,39.17
2018-08-14T23:00:52.038Z,39.18
2018-08-14T23:03:18.020Z,39.40
2018-08-14T23:05:43.971Z,39.01
2018-08-14T23:08:09.905Z,38.84
2018-08-14T23:10:35.884Z,39.93
2018-08-14T23:13:01.826Z,39.80
2018-08-14T23:15:27.780Z,40.10
2018-08-14T23:17:53.722Z,39.82
2018-08-14T23:20:19.664Z,39.57
2018-08-14T23:22:45.588Z,39.30
2018-08-14T23:25:11.516Z,40.11
2018-08-14T23:27:37.440Z,39.23
2018-08-14T23:30:03.367Z,40.37
2018-08-14T23:32:29.307Z,39.86
2018-08-14T23:34:55.248Z,39.89
2018-08-14T23:37:21.184Z,38.86
2018-08-14T23:39:47.128Z,39.59
2018-08-14T23:42:13.064Z,40.03
2018-08-14T23:44:39.007Z,38.88
2018-08-14T23:47:04.959Z,39.71
2018-08-14T23:49:30.898Z,40.02
2018-08-14T23:51:56.866Z,39.94
2018-08-14T23:54:22.817Z,39.85
2018-08-14T23:56:48.764Z,40.22
2018-08-14T23:59:14.691Z,40.18
